createdAt,value
2023-05-20T00:00:49.287Z,13.90
2023-05-20T00:03:20.711Z,13.80
2023-05-20T00:05:47.759Z,13.90
2023-05-20T00:08:15.449Z,13.70
2023-05-20T00:10:42.427Z,13.70
2023-05-20T00:13:09.461Z,13.70
2023-05-20T00:15:36.899Z,13.70
2023-05-20T00:18:04.601Z,13.70
2023-05-20T00:20:32.664Z,13.70
2023-05-20T00:22:59.739Z,13.80
2023-05-20T00:25:26.833Z,13.90
2023-05-20T00:27:53.860Z,13.70
2023-05-20T00:30:20.908Z,13.70
2023-05-20T00:32:48.175Z,13.70
2023-05-20T00:35:15.339Z,13.70
2023-05-20T00:37:42.973Z,13.60
2023-05-20T00:40:10.996Z,13.90
2023-05-20T00:42:38.713Z,13.60
2023-05-20T00:45:06.499Z,14.00
2023-05-20T00:47:36.613Z,13.50
2023-05-20T00:50:04.880Z,13.70
2023-05-20T00:52:33.026Z,13.60
2023-05-20T00:55:00.446Z,13.80
2023-05-20T00:57:27.760Z,13.50
2023-05-20T00:59:55.506Z,13.50
2023-05-20T01:02:23.000Z,16.00
2023-05-20T01:04:50.166Z,13.50
2023-05-20T01:07:18.778Z,14.50
2023-05-20T01:09:46.205Z,13.30
2023-05-20T01:12:29.610Z,13.30
2023-05-20T01:15:11.971Z,16.50
2023-05-20T01:17:45.022Z,13.90
2023-05-20T01:20:14.588Z,14.30
2023-05-20T01:22:56.364Z,13.50
2023-05-20T01:25:25.005Z,13.40
2023-05-20T01:27:53.175Z,13.30
2023-05-20T01:30:21.310Z,14.70
2023-05-20T01:32:59.038Z,13.60
2023-05-20T01:35:26.485Z,13.10
2023-05-20T01:37:54.250Z,13.10
2023-05-20T01:40:21.678Z,13.40
2023-05-20T01:42:53.372Z,13.30
2023-05-20T01:45:21.074Z,13.70
2023-05-20T01:47:48.462Z,13.10
2023-05-20T01:50:15.468Z,14.40
2023-05-20T01:52:42.510Z,14.00
2023-05-20T01:55:09.934Z,13.40
2023-05-20T01:57:37.025Z,12.90
2023-05-20T02:00:04.639Z,13.40
2023-05-20T02:02:31.631Z,12.80
2023-05-20T02:04:58.678Z,13.00
2023-05-20T02:07:25.698Z,12.70
2023-05-20T02:09:52.697Z,13.80
2023-05-20T02:12:19.694Z,14.30
2023-05-20T02:14:48.139Z,13.40
2023-05-20T02:17:19.593Z,12.90
2023-05-20T02:19:47.267Z,12.70
2023-05-20T02:22:14.886Z,12.70
2023-05-20T02:24:43.507Z,13.40
2023-05-20T02:27:10.864Z,12.60
2023-05-20T02:29:37.836Z,12.60
2023-05-20T02:32:05.273Z,13.50
2023-05-20T02:34:32.941Z,12.60
2023-05-20T02:37:00.019Z,12.90
2023-05-20T02:39:28.494Z,12.50
2023-05-20T02:41:56.383Z,12.60
2023-05-20T02:44:23.480Z,12.60
2023-05-20T02:46:50.611Z,12.90
2023-05-20T02:49:17.651Z,12.60
2023-05-20T02:51:44.685Z,13.50
2023-05-20T02:54:12.109Z,13.60
2023-05-20T02:56:39.317Z,13.70
2023-05-20T02:59:07.163Z,12.60
2023-05-20T03:01:35.520Z,12.90
2023-05-20T03:04:03.623Z,12.90
2023-05-20T03:06:32.033Z,12.60
2023-05-20T03:08:59.582Z,12.60
2023-05-20T03:11:26.783Z,12.90
2023-05-20T03:13:53.857Z,13.70
2023-05-20T03:16:20.978Z,13.00
2023-05-20T03:18:48.428Z,12.80
2023-05-20T03:21:15.530Z,12.60
2023-05-20T03:23:42.577Z,13.50
2023-05-20T03:26:09.543Z,12.70
2023-05-20T03:28:36.842Z,13.50
2023-05-20T03:31:04.560Z,12.70
2023-05-20T03:33:33.704Z,12.60
2023-05-20T03:36:00.838Z,12.90
2023-05-20T03:38:27.969Z,12.60
2023-05-20T03:40:54.925Z,13.80
2023-05-20T03:43:21.880Z,12.70
2023-05-20T03:45:48.778Z,12.80
2023-05-20T03:48:16.061Z,13.60
2023-05-20T03:50:42.995Z,12.80
2023-05-20T03:53:09.909Z,12.80
2023-05-20T03:55:37.052Z,13.80
2023-05-20T03:58:04.248Z,13.40
2023-05-20T04:00:31.867Z,13.30
2023-05-20T04:02:59.325Z,13.60
2023-05-20T04:05:26.640Z,14.80
2023-05-20T04:07:53.630Z,13.00
2023-05-20T04:10:21.472Z,13.00
2023-05-20T04:12:48.646Z,13.00
2023-05-20T04:15:15.779Z,13.30
2023-05-20T04:17:43.690Z,13.10
2023-05-20T04:20:11.496Z,13.30
2023-05-20T04:22:39.765Z,13.00
2023-05-20T04:25:07.755Z,13.40
2023-05-20T04:27:34.858Z,13.10
2023-05-20T04:30:02.416Z,13.60
2023-05-20T04:32:29.380Z,13.20
2023-05-20T04:34:57.368Z,13.30
2023-05-20T04:37:25.266Z,13.40
2023-05-20T04:39:52.661Z,13.60
2023-05-20T04:42:21.460Z,14.70
2023-05-20T04:44:49.147Z,13.80
2023-05-20T04:47:16.219Z,13.70
2023-05-20T04:49:43.409Z,16.40
2023-05-20T04:52:10.766Z,13.60
2023-05-20T04:54:37.699Z,13.70
2023-05-20T04:57:04.986Z,14.40
2023-05-20T04:59:31.963Z,13.70
2023-05-20T05:01:59.006Z,13.70
2023-05-20T05:04:26.188Z,13.70
2023-05-20T05:06:53.272Z,13.80
2023-05-20T05:09:20.242Z,14.10
2023-05-20T05:11:47.138Z,14.60
2023-05-20T05:14:14.109Z,13.90
2023-05-20T05:16:41.081Z,15.10
2023-05-20T05:19:08.828Z,14.70
2023-05-20T05:21:36.295Z,14.30
2023-05-20T05:24:03.378Z,16.80
2023-05-20T05:26:30.379Z,14.00
2023-05-20T05:28:57.400Z,14.30
2023-05-20T05:31:24.317Z,14.10
2023-05-20T05:33:51.506Z,14.10
2023-05-20T05:36:18.454Z,14.80
2023-05-20T05:38:45.534Z,14.80
2023-05-20T05:41:12.608Z,14.20
2023-05-20T05:43:39.606Z,15.10
2023-05-20T05:46:06.640Z,14.30
2023-05-20T05:48:33.809Z,14.30
2023-05-20T05:51:00.913Z,14.40
2023-05-20T05:53:27.867Z,14.40
2023-05-20T05:55:54.799Z,15.40
2023-05-20T05:58:21.694Z,14.90
2023-05-20T06:00:53.070Z,15.30
2023-05-20T06:03:20.246Z,14.70
2023-05-20T06:05:47.700Z,14.90
2023-05-20T06:08:14.732Z,15.00
2023-05-20T06:10:41.723Z,14.90
2023-05-20T06:13:08.732Z,14.90
2023-05-20T06:15:36.621Z,14.90
2023-05-20T06:18:03.899Z,15.40
2023-05-20T06:20:30.819Z,15.10
2023-05-20T06:22:57.731Z,15.30
2023-05-20T06:25:25.731Z,15.90
2023-05-20T06:27:52.645Z,15.30
2023-05-20T06:30:19.878Z,15.70
2023-05-20T06:32:47.320Z,15.40
2023-05-20T06:35:14.282Z,16.00
2023-05-20T06:37:41.362Z,15.30
2023-05-20T06:40:09.405Z,15.70
2023-05-20T06:42:36.320Z,15.60
2023-05-20T06:45:03.412Z,15.60
2023-05-20T06:47:30.487Z,15.70
2023-05-20T06:49:57.421Z,15.70
2023-05-20T06:52:24.397Z,15.90
2023-05-20T06:54:51.390Z,15.90
2023-05-20T06:57:18.376Z,16.00
2023-05-20T06:59:45.468Z,16.00
2023-05-20T07:02:12.515Z,16.50
2023-05-20T07:04:39.545Z,16.10
2023-05-20T07:07:06.762Z,16.40
2023-05-20T07:09:34.231Z,16.40
2023-05-20T07:12:01.975Z,16.30
2023-05-20T07:14:29.249Z,16.40
2023-05-20T07:16:56.270Z,16.50
2023-05-20T07:19:23.329Z,16.60
2023-05-20T07:21:50.350Z,16.60
2023-05-20T07:24:17.926Z,16.70
2023-05-20T07:26:45.057Z,16.70
2023-05-20T07:29:12.171Z,16.80
2023-05-20T07:31:39.121Z,16.80
2023-05-20T07:34:06.107Z,16.90
2023-05-20T07:36:33.356Z,17.00
2023-05-20T07:39:04.158Z,17.10
2023-05-20T07:41:32.170Z,17.30
2023-05-20T07:43:59.127Z,17.30
2023-05-20T07:46:26.231Z,17.40
2023-05-20T07:48:53.405Z,17.40
2023-05-20T07:51:20.518Z,17.50
2023-05-20T07:53:47.885Z,17.60
2023-05-20T07:56:14.905Z,17.60
2023-05-20T07:58:42.750Z,17.70
2023-05-20T08:01:10.231Z,17.80
2023-05-20T08:03:37.519Z,18.00
2023-05-20T08:06:04.661Z,18.00
2023-05-20T08:08:31.643Z,18.00
2023-05-20T08:10:58.812Z,18.10
2023-05-20T08:13:27.993Z,18.20
2023-05-20T08:15:55.227Z,18.30
2023-05-20T08:18:23.323Z,18.30
2023-05-20T08:20:50.998Z,18.30
2023-05-20T08:23:17.999Z,18.50
2023-05-20T08:25:46.897Z,18.60
2023-05-20T08:28:14.205Z,18.70
2023-05-20T08:30:41.614Z,18.80
2023-05-20T08:33:08.925Z,18.90
2023-05-20T08:35:37.797Z,19.00
2023-05-20T08:38:05.065Z,19.20
2023-05-20T08:40:32.346Z,19.30
2023-05-20T08:42:59.538Z,19.40
2023-05-20T08:45:28.607Z,19.40
2023-05-20T08:47:55.929Z,19.50
2023-05-20T08:50:22.988Z,19.60
2023-05-20T08:52:50.210Z,19.70
2023-05-20T08:55:43.546Z,19.80
2023-05-20T08:58:10.749Z,19.90
2023-05-20T09:00:38.366Z,20.00
2023-05-20T09:03:05.541Z,20.10
2023-05-20T09:05:34.379Z,20.20
2023-05-20T09:08:09.760Z,20.30
2023-05-20T09:10:39.343Z,20.40
2023-05-20T09:13:07.761Z,20.50
2023-05-20T09:15:36.645Z,20.50
2023-05-20T09:18:07.647Z,20.60
2023-05-20T09:20:37.278Z,20.70
2023-05-20T09:23:06.672Z,20.80
2023-05-20T09:25:36.662Z,20.90
2023-05-20T09:28:08.803Z,20.90
2023-05-20T09:30:36.011Z,21.00
2023-05-20T09:33:05.819Z,21.10
2023-05-20T09:35:39.025Z,21.10
2023-05-20T09:38:09.722Z,21.20
2023-05-20T09:40:40.820Z,21.20
2023-05-20T09:43:08.465Z,21.30
2023-05-20T09:45:35.757Z,21.40
2023-05-20T09:48:04.010Z,21.50
2023-05-20T09:50:32.275Z,21.60
2023-05-20T09:53:03.890Z,21.70
2023-05-20T09:55:31.843Z,21.80
2023-05-20T09:58:02.963Z,21.90
2023-05-20T10:00:30.213Z,22.10
2023-05-20T10:02:57.665Z,22.40
2023-05-20T10:05:30.272Z,22.60
2023-05-20T10:07:57.657Z,22.60
2023-05-20T10:10:49.369Z,22.70
2023-05-20T10:13:50.082Z,22.80
2023-05-20T10:17:08.980Z,22.90
2023-05-20T10:19:36.269Z,23.10
2023-05-20T10:22:09.324Z,23.20
2023-05-20T10:24:44.348Z,23.20
2023-05-20T10:27:15.496Z,23.00
2023-05-20T10:30:15.138Z,22.90
2023-05-20T10:33:00.755Z,22.80
2023-05-20T10:35:28.631Z,22.80
2023-05-20T10:38:11.941Z,22.90
2023-05-20T10:40:39.486Z,22.90
2023-05-20T10:43:15.762Z,22.90
2023-05-20T10:45:56.126Z,22.90
2023-05-20T10:48:32.236Z,22.90
2023-05-20T10:51:06.542Z,22.80
2023-05-20T10:53:41.746Z,22.90
2023-05-20T10:56:18.768Z,23.20
2023-05-20T10:58:45.881Z,23.50
2023-05-20T11:01:14.195Z,24.00
2023-05-20T11:03:42.203Z,24.50
2023-05-20T11:06:18.560Z,24.90
2023-05-20T11:08:46.422Z,25.40
2023-05-20T11:11:15.148Z,25.80
2023-05-20T11:13:42.494Z,26.20
2023-05-20T11:16:09.808Z,26.50
2023-05-20T11:18:36.951Z,26.90
2023-05-20T11:21:04.106Z,27.30
2023-05-20T11:23:31.121Z,27.60
2023-05-20T11:25:58.377Z,27.80
2023-05-20T11:28:25.900Z,28.20
2023-05-20T11:30:53.929Z,28.50
2023-05-20T11:33:21.035Z,28.60
2023-05-20T11:35:50.804Z,28.50
2023-05-20T11:38:18.773Z,28.10
2023-05-20T11:40:55.646Z,27.60
2023-05-20T11:43:24.174Z,27.20
2023-05-20T11:45:57.660Z,26.90
2023-05-20T11:48:24.787Z,26.90
2023-05-20T11:50:54.527Z,26.80
2023-05-20T11:53:23.905Z,26.60
2023-05-20T11:55:52.100Z,26.40
2023-05-20T11:58:21.210Z,26.10
2023-05-20T12:00:53.278Z,25.90
2023-05-20T12:03:24.112Z,25.70
2023-05-20T12:05:51.415Z,25.50
2023-05-20T12:08:18.427Z,25.40
2023-05-20T12:10:45.418Z,25.20
2023-05-20T12:13:13.618Z,25.10
2023-05-20T12:15:41.299Z,25.10
2023-05-20T12:18:08.645Z,25.00
2023-05-20T12:20:37.303Z,24.90
2023-05-20T12:23:05.017Z,25.00
2023-05-20T12:25:32.050Z,25.00
2023-05-20T12:28:01.584Z,24.90
2023-05-20T12:30:28.527Z,24.90
2023-05-20T12:32:55.528Z,25.10
2023-05-20T12:35:43.268Z,25.10
2023-05-20T12:38:10.309Z,25.20
2023-05-20T12:40:38.330Z,25.40
2023-05-20T12:43:06.004Z,25.50
2023-05-20T12:45:32.989Z,25.70
2023-05-20T12:48:00.358Z,25.70
2023-05-20T12:50:27.553Z,25.70
2023-05-20T12:52:54.660Z,25.50
2023-05-20T12:55:21.734Z,25.50
2023-05-20T12:57:48.790Z,25.70
2023-05-20T13:00:16.644Z,25.90
2023-05-20T13:02:44.276Z,26.20
2023-05-20T13:05:11.731Z,26.50
2023-05-20T13:07:38.980Z,26.70
2023-05-20T13:10:07.566Z,27.10
2023-05-20T13:12:35.238Z,27.40
2023-05-20T13:15:02.300Z,27.60
2023-05-20T13:17:29.428Z,27.70
2023-05-20T13:19:56.433Z,27.90
2023-05-20T13:22:23.529Z,27.90
2023-05-20T13:24:50.554Z,27.80
2023-05-20T13:27:17.497Z,27.80
2023-05-20T13:29:44.590Z,27.70
2023-05-20T13:32:11.674Z,27.70
2023-05-20T13:34:39.383Z,27.80
2023-05-20T13:37:06.791Z,28.00
2023-05-20T13:39:34.171Z,28.10
2023-05-20T13:42:01.227Z,28.10
2023-05-20T13:44:28.566Z,28.20
2023-05-20T13:46:56.465Z,28.40
2023-05-20T13:49:23.463Z,28.70
2023-05-20T13:51:50.636Z,29.00
2023-05-20T13:54:17.677Z,29.20
2023-05-20T13:56:44.636Z,29.50
2023-05-20T13:59:11.776Z,29.80
2023-05-20T14:01:41.146Z,30.10
2023-05-20T14:04:08.305Z,30.40
2023-05-20T14:06:35.374Z,30.70
2023-05-20T14:09:03.496Z,31.00
2023-05-20T14:11:30.478Z,31.20
2023-05-20T14:13:57.471Z,31.20
2023-05-20T14:16:24.601Z,31.20
2023-05-20T14:18:51.704Z,31.20
2023-05-20T14:21:19.217Z,31.20
2023-05-20T14:23:47.019Z,31.20
2023-05-20T14:26:14.032Z,31.20
2023-05-20T14:28:41.086Z,31.20
2023-05-20T14:31:09.672Z,31.20
2023-05-20T14:33:36.965Z,31.20
2023-05-20T14:36:04.332Z,31.40
2023-05-20T14:38:31.355Z,31.60
2023-05-20T14:40:58.325Z,31.90
2023-05-20T14:43:25.909Z,32.10
2023-05-20T14:45:53.048Z,32.30
2023-05-20T14:48:20.083Z,32.30
2023-05-20T14:50:49.514Z,32.30
2023-05-20T14:53:17.508Z,32.30
2023-05-20T14:55:44.484Z,32.50
2023-05-20T14:58:11.677Z,32.60
2023-05-20T15:00:39.298Z,32.80
2023-05-20T15:03:06.543Z,32.60
2023-05-20T15:05:33.775Z,32.50
2023-05-20T15:08:00.725Z,32.50
2023-05-20T15:10:27.744Z,32.50
2023-05-20T15:12:55.234Z,32.30
2023-05-20T15:15:22.311Z,31.90
2023-05-20T15:17:49.351Z,31.40
2023-05-20T15:20:16.502Z,31.00
2023-05-20T15:22:47.761Z,30.50
2023-05-20T15:25:15.072Z,30.20
2023-05-20T15:27:42.289Z,29.70
2023-05-20T15:30:10.462Z,29.30
2023-05-20T15:32:37.886Z,29.00
2023-05-20T15:35:05.940Z,28.70
2023-05-20T15:37:32.901Z,28.60
2023-05-20T15:39:59.943Z,28.60
2023-05-20T15:42:27.003Z,28.80
2023-05-20T15:44:54.016Z,29.00
2023-05-20T15:47:21.411Z,29.00
2023-05-20T15:49:48.537Z,28.90
2023-05-20T15:52:15.594Z,28.60
2023-05-20T15:54:42.616Z,28.50
2023-05-20T15:57:10.123Z,28.30
2023-05-20T15:59:37.091Z,28.20
2023-05-20T16:02:04.206Z,28.30
2023-05-20T16:04:32.561Z,28.30
2023-05-20T16:06:59.847Z,28.30
2023-05-20T16:09:26.846Z,28.50
2023-05-20T16:11:53.834Z,28.80
2023-05-20T16:14:20.807Z,28.90
2023-05-20T16:16:48.081Z,29.00
2023-05-20T16:19:15.224Z,29.00
2023-05-20T16:21:42.190Z,28.80
2023-05-20T16:24:09.117Z,28.50
2023-05-20T16:26:36.100Z,28.10
2023-05-20T16:29:03.076Z,27.80
2023-05-20T16:31:30.103Z,27.40
2023-05-20T16:33:57.408Z,27.20
2023-05-20T16:36:24.458Z,26.90
2023-05-20T16:38:51.460Z,26.70
2023-05-20T16:41:19.641Z,26.60
2023-05-20T16:43:46.636Z,26.40
2023-05-20T16:46:14.631Z,26.40
2023-05-20T16:48:42.600Z,26.40
2023-05-20T16:51:09.681Z,26.40
2023-05-20T16:53:37.248Z,26.40
2023-05-20T16:56:06.667Z,26.40
2023-05-20T16:58:33.710Z,26.40
2023-05-20T17:01:01.941Z,26.30
2023-05-20T17:03:28.955Z,26.20
2023-05-20T17:05:55.956Z,26.10
2023-05-20T17:08:22.966Z,25.80
2023-05-20T17:10:52.432Z,25.60
2023-05-20T17:13:21.050Z,25.50
2023-05-20T17:15:48.099Z,25.30
2023-05-20T17:18:15.192Z,25.10
2023-05-20T17:20:42.243Z,24.90
2023-05-20T17:23:09.210Z,24.80
2023-05-20T17:25:36.175Z,24.60
2023-05-20T17:28:03.161Z,24.50
2023-05-20T17:30:30.129Z,24.30
2023-05-20T17:32:57.696Z,24.10
2023-05-20T17:35:28.249Z,24.00
2023-05-20T17:37:55.285Z,23.90
2023-05-20T17:40:22.447Z,23.80
2023-05-20T17:42:49.414Z,23.70
2023-05-20T17:45:16.673Z,23.60
2023-05-20T17:47:43.676Z,23.50
2023-05-20T17:50:11.080Z,23.30
2023-05-20T17:52:38.092Z,23.20
2023-05-20T17:55:06.649Z,23.10
2023-05-20T17:57:34.010Z,23.00
2023-05-20T18:00:02.244Z,22.90
2023-05-20T18:02:29.357Z,22.80
2023-05-20T18:04:56.353Z,22.70
2023-05-20T18:07:23.484Z,22.60
2023-05-20T18:09:50.478Z,22.50
2023-05-20T18:12:17.517Z,22.40
2023-05-20T18:14:44.518Z,22.40
2023-05-20T18:17:11.469Z,22.30
2023-05-20T18:19:38.410Z,22.30
2023-05-20T18:22:07.193Z,22.20
2023-05-20T18:24:34.275Z,22.20
2023-05-20T18:27:01.294Z,22.10
2023-05-20T18:29:28.390Z,22.00
2023-05-20T18:31:55.544Z,22.00
2023-05-20T18:34:22.628Z,22.00
2023-05-20T18:36:49.941Z,21.90
2023-05-20T18:39:20.445Z,21.90
2023-05-20T18:41:48.471Z,21.80
2023-05-20T18:44:17.104Z,21.80
2023-05-20T18:46:44.696Z,21.90
2023-05-20T18:49:11.955Z,21.70
2023-05-20T18:51:40.716Z,21.60
2023-05-20T18:54:07.964Z,21.50
2023-05-20T18:56:35.644Z,21.40
2023-05-20T18:59:02.615Z,21.20
2023-05-20T19:01:29.761Z,21.10
2023-05-20T19:03:56.897Z,21.00
2023-05-20T19:06:23.852Z,20.80
2023-05-20T19:08:50.976Z,20.80
2023-05-20T19:11:18.028Z,20.80
2023-05-20T19:13:45.023Z,20.80
2023-05-20T19:16:12.112Z,20.60
2023-05-20T19:18:39.171Z,20.60
2023-05-20T19:21:06.365Z,20.50
2023-05-20T19:23:33.428Z,20.40
2023-05-20T19:26:00.729Z,20.30
2023-05-20T19:28:27.795Z,20.20
2023-05-20T19:30:54.759Z,20.10
2023-05-20T19:33:22.127Z,20.00
2023-05-20T19:35:49.356Z,20.00
2023-05-20T19:38:16.544Z,19.90
2023-05-20T19:40:47.751Z,19.80
2023-05-20T19:43:14.958Z,19.80
2023-05-20T19:45:41.935Z,19.70
2023-05-20T19:48:09.808Z,19.60
2023-05-20T19:50:37.537Z,19.50
2023-05-20T19:53:07.288Z,19.40
2023-05-20T19:55:36.119Z,19.40
2023-05-20T19:58:03.551Z,19.30
2023-05-20T20:00:30.612Z,19.20
2023-05-20T20:02:59.633Z,19.20
2023-05-20T20:05:27.049Z,19.20
2023-05-20T20:07:54.185Z,19.20
2023-05-20T20:10:22.418Z,19.10
2023-05-20T20:12:49.924Z,19.00
2023-05-20T20:15:17.076Z,19.00
2023-05-20T20:17:45.707Z,18.90
2023-05-20T20:20:16.087Z,18.90
2023-05-20T20:22:43.070Z,18.90
2023-05-20T20:25:14.042Z,18.80
2023-05-20T20:27:43.944Z,18.80
2023-05-20T20:30:17.100Z,18.70
2023-05-20T20:32:44.162Z,18.70
2023-05-20T20:35:11.318Z,18.60
2023-05-20T20:37:38.462Z,18.60
2023-05-20T20:40:08.059Z,18.50
2023-05-20T20:42:35.046Z,18.50
2023-05-20T20:45:02.309Z,18.40
2023-05-20T20:47:29.640Z,18.40
2023-05-20T20:49:56.871Z,18.30
2023-05-20T20:52:24.132Z,18.30
2023-05-20T20:54:51.078Z,18.40
2023-05-20T20:57:18.022Z,18.30
2023-05-20T20:59:47.767Z,18.30
2023-05-20T21:02:15.114Z,18.30
2023-05-20T21:04:42.737Z,18.30
2023-05-20T21:07:10.091Z,18.20
2023-05-20T21:09:37.032Z,18.20
2023-05-20T21:12:06.624Z,18.20
2023-05-20T21:14:33.900Z,18.20
2023-05-20T21:17:01.048Z,18.10
2023-05-20T21:19:29.659Z,18.10
2023-05-20T21:21:56.819Z,18.20
2023-05-20T21:24:23.804Z,18.10
2023-05-20T21:26:50.746Z,18.10
2023-05-20T21:29:17.773Z,18.10
2023-05-20T21:31:44.712Z,18.10
2023-05-20T21:34:11.673Z,18.00
2023-05-20T21:36:38.633Z,18.10
2023-05-20T21:39:05.991Z,18.00
2023-05-20T21:41:33.218Z,18.00
2023-05-20T21:44:00.163Z,18.00
2023-05-20T21:46:27.236Z,17.90
2023-05-20T21:48:54.264Z,17.90
2023-05-20T21:51:21.202Z,17.90
2023-05-20T21:53:48.107Z,17.70
2023-05-20T21:56:15.074Z,18.20
2023-05-20T21:58:42.121Z,17.70
2023-05-20T22:01:10.240Z,17.60
2023-05-20T22:03:38.383Z,17.60
2023-05-20T22:06:06.147Z,17.60
2023-05-20T22:08:35.802Z,17.60
2023-05-20T22:11:07.213Z,17.60
2023-05-20T22:13:35.849Z,17.60
2023-05-20T22:16:04.915Z,17.50
2023-05-20T22:18:32.580Z,17.60
2023-05-20T22:21:00.149Z,17.40
2023-05-20T22:23:28.597Z,17.40
2023-05-20T22:25:55.772Z,17.40
2023-05-20T22:28:23.737Z,17.30
2023-05-20T22:30:51.578Z,17.30
2023-05-20T22:33:18.730Z,17.20
2023-05-20T22:35:45.781Z,17.20
2023-05-20T22:38:12.768Z,17.20
2023-05-20T22:40:39.716Z,17.10
2023-05-20T22:43:06.681Z,17.10
2023-05-20T22:45:33.765Z,17.10
2023-05-20T22:48:02.019Z,17.10
2023-05-20T22:50:29.163Z,17.00
2023-05-20T22:52:56.299Z,17.00
2023-05-20T22:55:23.955Z,17.00
2023-05-20T22:57:51.392Z,17.00
2023-05-20T23:00:18.837Z,17.00
2023-05-20T23:02:49.476Z,16.90
2023-05-20T23:05:17.349Z,17.00
2023-05-20T23:07:44.953Z,17.10
2023-05-20T23:10:12.014Z,17.00
2023-05-20T23:12:39.154Z,16.90
2023-05-20T23:15:07.450Z,16.90
2023-05-20T23:17:34.412Z,16.80
2023-05-20T23:20:01.453Z,16.80
2023-05-20T23:22:28.526Z,16.80
2023-05-20T23:24:55.634Z,16.80
2023-05-20T23:27:22.671Z,16.80
2023-05-20T23:29:49.774Z,16.70
2023-05-20T23:32:16.746Z,16.80
2023-05-20T23:34:43.853Z,16.70
2023-05-20T23:37:11.279Z,16.60
2023-05-20T23:39:38.481Z,16.60
2023-05-20T23:42:05.892Z,16.60
2023-05-20T23:44:32.874Z,16.50
2023-05-20T23:47:00.848Z,16.60
2023-05-20T23:49:29.633Z,16.40
2023-05-20T23:51:56.670Z,16.40
2023-05-20T23:54:23.715Z,16.40
2023-05-20T23:56:50.793Z,16.30
2023-05-20T23:59:17.791Z,16.30
